createdAt,value
2019-03-30T00:00:33.781Z,65.00
2019-03-30T00:03:03.386Z,64.90
2019-03-30T00:05:32.965Z,64.90
2019-03-30T00:08:02.583Z,65.10
2019-03-30T00:10:32.202Z,65.50
2019-03-30T00:13:01.857Z,65.50
2019-03-30T00:15:31.485Z,65.70
2019-03-30T00:18:01.121Z,65.70
2019-03-30T00:20:30.768Z,65.90
2019-03-30T00:23:00.318Z,65.70
2019-03-30T00:25:29.856Z,65.80
2019-03-30T00:27:59.443Z,65.80
2019-03-30T00:30:29.085Z,66.30
2019-03-30T00:32:58.659Z,66.30
2019-03-30T00:35:28.301Z,66.60
2019-03-30T00:37:57.913Z,66.70
2019-03-30T00:40:27.452Z,66.70
2019-03-30T00:42:56.970Z,66.90
2019-03-30T00:45:26.588Z,67.00
2019-03-30T00:47:56.213Z,67.20
2019-03-30T00:50:25.865Z,67.30
2019-03-30T00:52:55.451Z,67.30
2019-03-30T00:55:25.088Z,67.20
2019-03-30T00:57:54.680Z,67.30
2019-03-30T01:00:24.289Z,67.50
2019-03-30T01:02:53.886Z,67.40
2019-03-30T01:05:23.553Z,67.40
2019-03-30T01:07:53.229Z,67.70
2019-03-30T01:10:23.021Z,67.60
2019-03-30T01:12:52.713Z,67.90
2019-03-30T01:15:22.382Z,68.10
2019-03-30T01:17:52.000Z,68.20
2019-03-30T01:20:21.614Z,68.30
2019-03-30T01:22:51.291Z,68.40
2019-03-30T01:25:20.915Z,68.30
2019-03-30T01:27:50.589Z,68.40
2019-03-30T01:30:23.282Z,68.40
2019-03-30T01:32:51.554Z,68.40
2019-03-30T01:35:21.379Z,68.70
2019-03-30T01:37:50.943Z,68.50
2019-03-30T01:40:20.602Z,68.60
2019-03-30T01:42:50.198Z,68.90
2019-03-30T01:45:19.745Z,68.90
2019-03-30T01:47:49.329Z,69.00
2019-03-30T01:50:18.945Z,69.10
2019-03-30T01:52:48.457Z,69.50
2019-03-30T01:55:18.050Z,69.40
2019-03-30T01:57:47.671Z,69.50
2019-03-30T02:00:17.349Z,70.00
2019-03-30T02:02:47.032Z,70.30
2019-03-30T02:05:16.747Z,70.10
2019-03-30T02:07:46.429Z,70.20
2019-03-30T02:10:25.592Z,70.20
2019-03-30T02:12:55.396Z,70.20
2019-03-30T02:15:25.005Z,70.60
2019-03-30T02:17:54.703Z,70.90
2019-03-30T02:20:36.842Z,71.10
2019-03-30T02:23:06.619Z,70.90
2019-03-30T02:25:36.226Z,71.10
2019-03-30T02:28:07.094Z,71.10
2019-03-30T02:30:36.858Z,71.40
2019-03-30T02:33:06.455Z,71.60
2019-03-30T02:35:36.069Z,71.80
2019-03-30T02:38:05.690Z,71.70
2019-03-30T02:40:35.298Z,71.70
2019-03-30T02:43:04.934Z,71.90
2019-03-30T02:45:34.640Z,71.90
2019-03-30T02:48:04.231Z,71.90
2019-03-30T02:50:48.171Z,72.30
2019-03-30T02:53:05.167Z,72.60
2019-03-30T02:55:34.759Z,72.80
2019-03-30T02:58:04.461Z,72.70
2019-03-30T03:00:34.241Z,72.40
2019-03-30T03:03:04.093Z,72.50
2019-03-30T03:05:33.714Z,73.00
2019-03-30T03:08:03.308Z,73.00
2019-03-30T03:10:32.990Z,73.40
2019-03-30T03:13:02.561Z,73.30
2019-03-30T03:15:32.290Z,73.40
2019-03-30T03:18:01.860Z,73.60
2019-03-30T03:20:31.525Z,73.70
2019-03-30T03:23:01.112Z,73.70
2019-03-30T03:25:30.758Z,73.80
2019-03-30T03:28:00.411Z,73.70
2019-03-30T03:30:30.053Z,73.80
2019-03-30T03:32:59.802Z,74.20
2019-03-30T03:35:29.474Z,74.30
2019-03-30T03:37:59.104Z,74.50
2019-03-30T03:40:28.711Z,74.80
2019-03-30T03:42:58.655Z,75.00
2019-03-30T03:45:28.300Z,75.20
2019-03-30T03:47:57.834Z,76.00
2019-03-30T03:50:42.922Z,75.50
2019-03-30T03:53:14.214Z,75.60
2019-03-30T03:55:45.220Z,75.30
2019-03-30T03:58:17.130Z,75.50
2019-03-30T04:00:47.724Z,75.50
2019-03-30T04:03:18.724Z,76.70
2019-03-30T04:05:48.739Z,75.90
2019-03-30T04:08:18.352Z,76.20
2019-03-30T04:10:51.336Z,76.40
2019-03-30T04:13:23.478Z,76.50
2019-03-30T04:15:53.150Z,76.60
2019-03-30T04:18:22.728Z,76.70
2019-03-30T04:20:52.309Z,76.80
2019-03-30T04:23:21.918Z,77.40
2019-03-30T04:25:51.527Z,77.90
2019-03-30T04:28:21.153Z,78.00
2019-03-30T04:30:50.774Z,78.40
2019-03-30T04:33:20.411Z,78.50
2019-03-30T04:35:50.033Z,78.60
2019-03-30T04:38:19.684Z,78.80
2019-03-30T04:40:49.324Z,78.70
2019-03-30T04:43:18.935Z,78.60
2019-03-30T04:45:48.551Z,79.20
2019-03-30T04:48:18.152Z,79.20
2019-03-30T04:50:47.846Z,79.40
2019-03-30T04:53:17.504Z,80.10
2019-03-30T04:55:47.133Z,79.70
2019-03-30T04:58:16.766Z,79.80
2019-03-30T05:00:46.397Z,80.30
2019-03-30T05:03:16.089Z,80.10
2019-03-30T05:05:45.699Z,80.20
2019-03-30T05:08:15.309Z,80.00
2019-03-30T05:10:44.927Z,80.20
2019-03-30T05:13:14.577Z,80.60
2019-03-30T05:15:44.270Z,81.20
2019-03-30T05:18:15.209Z,81.90
2019-03-30T05:20:44.976Z,82.10
2019-03-30T05:23:14.579Z,81.80
2019-03-30T05:25:44.201Z,81.90
2019-03-30T05:28:13.845Z,82.20
2019-03-30T05:30:43.353Z,85.50
2019-03-30T05:33:12.976Z,88.60
2019-03-30T05:35:42.631Z,89.10
2019-03-30T05:38:12.255Z,90.00
2019-03-30T05:40:41.855Z,90.20
2019-03-30T05:43:11.461Z,90.60
2019-03-30T05:45:41.053Z,91.00
2019-03-30T05:48:10.681Z,91.20
2019-03-30T05:50:40.264Z,91.50
2019-03-30T05:53:09.885Z,91.90
2019-03-30T05:55:39.525Z,92.60
2019-03-30T05:58:09.151Z,92.60
2019-03-30T06:00:38.780Z,93.00
2019-03-30T06:03:08.407Z,93.90
2019-03-30T06:05:38.009Z,94.30
2019-03-30T06:08:07.625Z,95.20
2019-03-30T06:10:38.799Z,96.20
2019-03-30T06:13:08.747Z,96.70
2019-03-30T06:15:38.293Z,96.90
2019-03-30T06:18:11.181Z,97.10
2019-03-30T06:20:39.315Z,97.40
2019-03-30T06:23:08.950Z,97.70
2019-03-30T06:25:38.632Z,97.90
2019-03-30T06:28:08.282Z,98.20
2019-03-30T06:30:37.904Z,98.50
2019-03-30T06:33:07.552Z,99.40
2019-03-30T06:35:37.122Z,99.50
2019-03-30T06:38:06.752Z,99.90
2019-03-30T06:40:36.416Z,99.90
2019-03-30T06:43:07.726Z,99.90
2019-03-30T06:45:37.306Z,99.90
2019-03-30T06:48:06.970Z,99.90
2019-03-30T06:50:36.618Z,99.90
2019-03-30T06:53:06.252Z,99.90
2019-03-30T06:55:35.863Z,99.90
2019-03-30T06:58:05.498Z,99.90
2019-03-30T07:00:36.286Z,99.90
2019-03-30T07:03:06.993Z,99.90
2019-03-30T07:05:43.840Z,99.90
2019-03-30T07:08:16.764Z,99.90
2019-03-30T07:10:46.778Z,99.90
2019-03-30T07:13:16.511Z,99.90
2019-03-30T07:15:47.034Z,99.90
2019-03-30T07:18:16.937Z,99.90
2019-03-30T07:20:46.640Z,99.90
2019-03-30T07:23:16.366Z,99.90
2019-03-30T07:25:45.978Z,99.90
2019-03-30T07:28:15.667Z,99.90
2019-03-30T07:30:45.295Z,99.90
2019-03-30T07:33:14.963Z,99.90
2019-03-30T07:35:44.555Z,99.90
2019-03-30T07:38:14.193Z,99.90
2019-03-30T07:40:43.869Z,99.90
2019-03-30T07:43:13.566Z,99.90
2019-03-30T07:45:43.193Z,99.90
2019-03-30T07:48:12.838Z,99.90
2019-03-30T07:50:42.493Z,99.90
2019-03-30T07:53:25.600Z,99.90
2019-03-30T07:55:43.374Z,99.90
2019-03-30T08:00:48.043Z,99.90
2019-03-30T08:03:17.777Z,99.90
2019-03-30T08:05:47.399Z,99.90
2019-03-30T08:08:17.037Z,99.90
2019-03-30T08:10:46.657Z,99.90
2019-03-30T08:13:16.293Z,99.90
2019-03-30T08:15:45.911Z,99.90
2019-03-30T08:18:15.541Z,99.90
2019-03-30T08:20:45.217Z,99.90
2019-03-30T08:23:14.835Z,99.90
2019-03-30T08:25:44.367Z,99.90
2019-03-30T08:28:14.001Z,99.90
2019-03-30T08:30:43.603Z,99.90
2019-03-30T08:33:13.227Z,99.90
2019-03-30T08:35:42.865Z,99.90
2019-03-30T08:38:12.515Z,99.90
2019-03-30T08:40:42.135Z,99.90
2019-03-30T08:43:11.771Z,99.90
2019-03-30T08:45:41.386Z,99.90
2019-03-30T08:48:11.123Z,99.90
2019-03-30T08:50:40.833Z,99.90
2019-03-30T08:53:10.500Z,99.90
2019-03-30T08:55:40.123Z,99.90
2019-03-30T08:58:09.809Z,99.90
2019-03-30T09:00:41.049Z,99.90
2019-03-30T09:03:10.774Z,99.90
2019-03-30T09:05:40.480Z,99.90
2019-03-30T09:08:10.184Z,99.90
2019-03-30T09:10:40.680Z,99.90
2019-03-30T09:13:10.325Z,99.90
2019-03-30T09:15:39.945Z,99.40
2019-03-30T09:18:09.581Z,98.40
2019-03-30T09:20:39.219Z,97.50
2019-03-30T09:23:08.870Z,96.50
2019-03-30T09:25:38.487Z,95.50
2019-03-30T09:28:08.143Z,95.20
2019-03-30T09:30:37.822Z,94.50
2019-03-30T09:33:07.472Z,93.60
2019-03-30T09:35:37.173Z,93.10
2019-03-30T09:38:06.805Z,92.40
2019-03-30T09:40:36.483Z,92.00
2019-03-30T09:43:06.131Z,91.60
2019-03-30T09:45:35.784Z,91.50
2019-03-30T09:48:05.436Z,91.00
2019-03-30T09:50:35.068Z,90.60
2019-03-30T09:53:04.776Z,90.30
2019-03-30T09:55:34.387Z,90.00
2019-03-30T09:58:04.071Z,88.40
2019-03-30T10:00:33.759Z,87.70
2019-03-30T10:03:06.019Z,87.40
2019-03-30T10:05:34.850Z,86.50
2019-03-30T10:08:04.478Z,84.90
2019-03-30T10:10:34.090Z,84.00
2019-03-30T10:13:03.736Z,83.80
2019-03-30T10:15:33.375Z,82.80
2019-03-30T10:18:03.060Z,82.90
2019-03-30T10:20:32.613Z,81.70
2019-03-30T10:23:02.262Z,80.80
2019-03-30T10:25:31.880Z,80.40
2019-03-30T10:28:01.547Z,79.50
2019-03-30T10:30:31.145Z,78.90
2019-03-30T10:33:00.787Z,78.20
2019-03-30T10:35:30.385Z,77.50
2019-03-30T10:38:00.051Z,76.70
2019-03-30T10:40:29.696Z,76.50
2019-03-30T10:42:59.318Z,75.90
2019-03-30T10:45:28.935Z,75.30
2019-03-30T10:47:58.602Z,74.70
2019-03-30T10:50:28.221Z,74.20
2019-03-30T10:52:57.868Z,74.10
2019-03-30T10:55:27.524Z,73.60
2019-03-30T10:57:58.833Z,72.60
2019-03-30T11:00:39.289Z,72.20
2019-03-30T11:03:09.041Z,72.20
2019-03-30T11:05:38.663Z,72.30
2019-03-30T11:08:08.354Z,71.90
2019-03-30T11:10:38.047Z,71.60
2019-03-30T11:13:07.716Z,71.70
2019-03-30T11:15:37.306Z,71.30
2019-03-30T11:18:06.935Z,70.90
2019-03-30T11:20:36.529Z,70.20
2019-03-30T11:23:06.160Z,70.30
2019-03-30T11:25:35.786Z,70.50
2019-03-30T11:28:05.444Z,69.90
2019-03-30T11:30:35.056Z,69.50
2019-03-30T11:33:04.798Z,69.20
2019-03-30T11:35:34.392Z,68.10
2019-03-30T11:38:04.054Z,66.60
2019-03-30T11:40:33.751Z,66.60
2019-03-30T11:43:03.383Z,66.50
2019-03-30T11:45:33.002Z,65.40
2019-03-30T11:48:02.682Z,65.00
2019-03-30T11:50:32.338Z,64.00
2019-03-30T11:53:01.947Z,62.80
2019-03-30T11:55:31.591Z,62.70
2019-03-30T11:58:01.257Z,63.10
2019-03-30T12:00:30.885Z,61.70
2019-03-30T12:03:00.523Z,61.50
2019-03-30T12:05:30.166Z,62.00
2019-03-30T12:07:59.858Z,62.10
2019-03-30T12:10:29.537Z,61.60
2019-03-30T12:12:59.139Z,59.90
2019-03-30T12:15:28.781Z,60.20
2019-03-30T12:17:58.483Z,60.20
2019-03-30T12:20:28.119Z,59.20
2019-03-30T12:22:58.955Z,58.80
2019-03-30T12:25:35.389Z,58.20
2019-03-30T12:27:59.985Z,57.70
2019-03-30T12:30:29.571Z,56.30
2019-03-30T12:32:59.217Z,56.30
2019-03-30T12:35:28.843Z,56.40
2019-03-30T12:37:58.401Z,55.60
2019-03-30T12:40:28.044Z,55.10
2019-03-30T12:42:57.831Z,54.40
2019-03-30T12:45:27.410Z,54.90
2019-03-30T12:47:57.131Z,55.00
2019-03-30T12:50:26.741Z,54.90
2019-03-30T12:52:56.391Z,54.20
2019-03-30T12:55:25.988Z,53.70
2019-03-30T12:57:55.599Z,53.20
2019-03-30T13:00:25.430Z,53.00
2019-03-30T13:02:55.015Z,52.70
2019-03-30T13:05:24.652Z,52.70
2019-03-30T13:07:54.264Z,53.30
2019-03-30T13:10:23.928Z,53.90
2019-03-30T13:12:53.537Z,53.10
2019-03-30T13:15:23.180Z,53.20
2019-03-30T13:17:52.800Z,53.30
2019-03-30T13:20:22.483Z,53.10
2019-03-30T13:22:52.002Z,53.00
2019-03-30T13:25:21.663Z,52.90
2019-03-30T13:27:53.420Z,53.00
2019-03-30T13:30:22.657Z,53.20
2019-03-30T13:32:53.578Z,52.90
2019-03-30T13:35:23.312Z,51.70
2019-03-30T13:37:52.829Z,52.60
2019-03-30T13:40:22.557Z,51.90
2019-03-30T13:42:52.205Z,51.10
2019-03-30T13:45:21.851Z,51.20
2019-03-30T13:47:51.440Z,50.90
2019-03-30T13:50:21.000Z,50.40
2019-03-30T13:52:50.627Z,50.20
2019-03-30T13:55:20.275Z,49.80
2019-03-30T13:57:49.816Z,50.00
2019-03-30T14:00:19.689Z,51.30
2019-03-30T14:02:49.371Z,51.30
2019-03-30T14:05:19.018Z,50.50
2019-03-30T14:07:48.649Z,49.40
2019-03-30T14:10:18.426Z,47.80
2019-03-30T14:12:48.050Z,47.90
2019-03-30T14:15:17.688Z,48.90
2019-03-30T14:17:47.315Z,49.50
2019-03-30T14:20:16.980Z,49.40
2019-03-30T14:22:46.585Z,47.60
2019-03-30T14:25:16.276Z,46.80
2019-03-30T14:27:45.862Z,48.10
2019-03-30T14:30:16.544Z,46.70
2019-03-30T14:32:46.198Z,46.50
2019-03-30T14:35:15.838Z,48.50
2019-03-30T14:37:45.462Z,48.30
2019-03-30T14:40:15.096Z,48.80
2019-03-30T14:42:44.735Z,48.50
2019-03-30T14:45:14.364Z,47.20
2019-03-30T14:47:43.990Z,47.00
2019-03-30T14:50:13.767Z,47.50
2019-03-30T14:52:43.390Z,46.90
2019-03-30T14:55:13.043Z,47.60
2019-03-30T14:57:42.673Z,46.40
2019-03-30T15:00:14.233Z,46.60
2019-03-30T15:02:43.930Z,46.30
2019-03-30T15:05:13.674Z,44.10
2019-03-30T15:07:43.286Z,43.30
2019-03-30T15:10:13.027Z,44.20
2019-03-30T15:12:42.627Z,45.10
2019-03-30T15:15:14.076Z,44.80
2019-03-30T15:17:43.690Z,45.20
2019-03-30T15:20:13.439Z,44.80
2019-03-30T15:22:43.091Z,44.40
2019-03-30T15:25:13.187Z,44.60
2019-03-30T15:27:42.849Z,44.30
2019-03-30T15:30:13.572Z,45.50
2019-03-30T15:32:43.190Z,45.10
2019-03-30T15:35:12.801Z,44.30
2019-03-30T15:37:42.455Z,43.70
2019-03-30T15:40:12.131Z,43.50
2019-03-30T15:42:41.735Z,43.50
2019-03-30T15:45:11.523Z,43.30
2019-03-30T15:47:41.252Z,43.20
2019-03-30T15:50:11.299Z,43.70
2019-03-30T15:52:40.934Z,45.00
2019-03-30T15:55:10.647Z,44.50
2019-03-30T15:57:40.296Z,44.80
2019-03-30T16:00:12.352Z,44.80
2019-03-30T16:02:41.983Z,44.20
2019-03-30T16:05:15.182Z,44.60
2019-03-30T16:07:43.134Z,44.40
2019-03-30T16:10:13.109Z,45.40
2019-03-30T16:12:42.663Z,45.70
2019-03-30T16:15:12.601Z,45.70
2019-03-30T16:17:42.213Z,45.60
2019-03-30T16:20:11.854Z,45.90
2019-03-30T16:22:41.567Z,45.80
2019-03-30T16:25:11.288Z,46.20
2019-03-30T16:27:40.938Z,47.00
2019-03-30T16:30:11.470Z,46.50
2019-03-30T16:32:41.118Z,45.90
2019-03-30T16:35:10.725Z,45.50
2019-03-30T16:37:40.363Z,45.70
2019-03-30T16:40:10.176Z,46.10
2019-03-30T16:42:39.828Z,45.60
2019-03-30T16:45:10.458Z,46.10
2019-03-30T16:47:40.181Z,46.20
2019-03-30T16:50:11.181Z,46.10
2019-03-30T16:52:41.399Z,46.80
2019-03-30T16:55:11.058Z,47.60
2019-03-30T16:57:43.655Z,47.70
2019-03-30T17:00:12.816Z,47.70
2019-03-30T17:02:42.487Z,47.50
2019-03-30T17:05:12.156Z,46.80
2019-03-30T17:07:41.793Z,46.80
2019-03-30T17:10:11.638Z,46.80
2019-03-30T17:12:41.290Z,47.10
2019-03-30T17:15:11.728Z,48.10
2019-03-30T17:17:41.400Z,47.00
2019-03-30T17:20:11.124Z,47.90
2019-03-30T17:22:40.760Z,46.90
2019-03-30T17:25:10.381Z,46.70
2019-03-30T17:27:40.111Z,46.80
2019-03-30T17:30:10.015Z,47.30
2019-03-30T17:32:39.682Z,47.20
2019-03-30T17:35:09.402Z,46.40
2019-03-30T17:37:39.043Z,46.50
2019-03-30T17:40:09.607Z,46.10
2019-03-30T17:42:39.380Z,44.60
2019-03-30T17:45:10.257Z,44.50
2019-03-30T17:47:39.969Z,43.90
2019-03-30T17:50:10.102Z,43.80
2019-03-30T17:52:39.768Z,44.20
2019-03-30T17:55:10.088Z,43.90
2019-03-30T17:57:39.721Z,43.40
2019-03-30T18:00:11.563Z,43.60
2019-03-30T18:02:41.237Z,43.60
2019-03-30T18:05:10.912Z,43.20
2019-03-30T18:07:40.521Z,43.40
2019-03-30T18:10:10.323Z,43.90
2019-03-30T18:12:39.961Z,44.40
2019-03-30T18:15:10.380Z,44.30
2019-03-30T18:17:40.024Z,45.00
2019-03-30T18:20:10.548Z,45.20
2019-03-30T18:22:40.201Z,45.50
2019-03-30T18:25:10.301Z,45.60
2019-03-30T18:27:39.983Z,45.60
2019-03-30T18:30:10.015Z,45.80
2019-03-30T18:32:40.454Z,46.10
2019-03-30T18:35:10.191Z,46.30
2019-03-30T18:37:39.915Z,46.70
2019-03-30T18:40:09.809Z,46.60
2019-03-30T18:42:39.472Z,47.10
2019-03-30T18:45:10.977Z,47.30
2019-03-30T18:47:40.615Z,47.60
2019-03-30T18:50:11.753Z,47.70
2019-03-30T18:52:41.490Z,47.60
2019-03-30T18:55:14.046Z,47.80
2019-03-30T18:57:43.712Z,47.80
2019-03-30T19:00:16.530Z,48.00
2019-03-30T19:02:46.504Z,48.20
2019-03-30T19:05:17.439Z,48.40
2019-03-30T19:07:47.126Z,48.50
2019-03-30T19:10:16.687Z,48.80
2019-03-30T19:12:46.328Z,49.00
2019-03-30T19:15:15.966Z,49.10
2019-03-30T19:17:45.637Z,49.30
2019-03-30T19:20:15.258Z,49.40
2019-03-30T19:22:44.905Z,49.70
2019-03-30T19:25:14.557Z,50.00
2019-03-30T19:27:44.197Z,50.30
2019-03-30T19:30:14.242Z,50.50
2019-03-30T19:32:43.874Z,50.40
2019-03-30T19:35:13.554Z,50.60
2019-03-30T19:37:43.195Z,50.70
2019-03-30T19:40:12.888Z,50.70
2019-03-30T19:42:42.574Z,50.70
2019-03-30T19:45:12.306Z,50.90
2019-03-30T19:47:41.962Z,51.20
2019-03-30T19:50:12.419Z,51.10
2019-03-30T19:52:42.172Z,51.00
2019-03-30T19:55:11.783Z,51.20
2019-03-30T19:57:41.411Z,51.50
2019-03-30T20:00:12.223Z,51.80
2019-03-30T20:02:41.831Z,52.00
2019-03-30T20:05:11.590Z,52.30
2019-03-30T20:07:41.257Z,52.40
2019-03-30T20:10:11.030Z,52.60
2019-03-30T20:12:40.764Z,52.80
2019-03-30T20:15:10.477Z,52.80
2019-03-30T20:17:40.197Z,52.80
2019-03-30T20:20:10.089Z,53.30
2019-03-30T20:22:39.747Z,53.10
2019-03-30T20:25:09.701Z,53.20
2019-03-30T20:27:39.227Z,53.40
2019-03-30T20:30:09.328Z,53.70
2019-03-30T20:32:38.991Z,53.70
2019-03-30T20:35:08.814Z,53.70
2019-03-30T20:37:38.444Z,53.50
2019-03-30T20:40:08.449Z,53.60
2019-03-30T20:42:38.090Z,53.90
2019-03-30T20:45:08.020Z,53.80
2019-03-30T20:47:37.619Z,54.30
2019-03-30T20:50:08.492Z,54.60
2019-03-30T20:52:38.117Z,54.70
2019-03-30T20:55:07.840Z,54.50
2019-03-30T20:57:37.473Z,54.50
2019-03-30T21:00:08.156Z,54.80
2019-03-30T21:02:37.759Z,55.10
2019-03-30T21:05:07.902Z,55.20
2019-03-30T21:07:37.564Z,55.20
2019-03-30T21:10:07.605Z,55.20
2019-03-30T21:12:37.216Z,55.10
2019-03-30T21:15:07.158Z,55.20
2019-03-30T21:17:36.836Z,55.40
2019-03-30T21:20:07.192Z,55.70
2019-03-30T21:22:38.028Z,55.70
2019-03-30T21:25:07.782Z,56.00
2019-03-30T21:27:37.418Z,56.00
2019-03-30T21:30:09.394Z,56.30
2019-03-30T21:32:39.049Z,56.30
2019-03-30T21:35:09.170Z,56.20
2019-03-30T21:37:38.792Z,56.40
2019-03-30T21:40:08.856Z,56.40
2019-03-30T21:42:38.508Z,56.30
2019-03-30T21:45:08.964Z,56.40
2019-03-30T21:47:38.647Z,56.30
2019-03-30T21:50:08.415Z,56.40
2019-03-30T21:52:38.032Z,56.50
2019-03-30T21:55:07.852Z,56.40
2019-03-30T21:57:37.448Z,56.30
2019-03-30T22:00:11.024Z,56.40
2019-03-30T22:02:39.761Z,56.40
2019-03-30T22:05:09.592Z,57.20
2019-03-30T22:07:39.195Z,57.20
2019-03-30T22:10:09.119Z,57.20
2019-03-30T22:12:41.943Z,57.10
2019-03-30T22:15:13.141Z,57.20
2019-03-30T22:17:42.795Z,57.20
2019-03-30T22:20:12.455Z,57.60
2019-03-30T22:22:42.048Z,57.80
2019-03-30T22:25:11.723Z,57.80
2019-03-30T22:27:41.325Z,57.60
2019-03-30T22:30:23.944Z,57.60
2019-03-30T22:32:42.625Z,57.70
2019-03-30T22:35:12.472Z,58.20
2019-03-30T22:37:42.092Z,57.60
2019-03-30T22:40:11.721Z,57.80
2019-03-30T22:42:41.387Z,57.90
2019-03-30T22:45:11.268Z,58.00
2019-03-30T22:47:40.883Z,57.90
2019-03-30T22:50:10.794Z,58.20
2019-03-30T22:52:40.491Z,58.20
2019-03-30T22:55:10.144Z,58.00
2019-03-30T22:57:39.816Z,58.30
2019-03-30T23:00:11.901Z,58.30
2019-03-30T23:02:41.663Z,58.30
2019-03-30T23:05:11.549Z,58.30
2019-03-30T23:07:41.073Z,58.50
2019-03-30T23:10:10.705Z,58.30
2019-03-30T23:12:40.319Z,58.40
2019-03-30T23:15:09.971Z,58.50
2019-03-30T23:17:39.617Z,58.40
2019-03-30T23:20:09.355Z,58.50
2019-03-30T23:22:38.974Z,58.60
2019-03-30T23:25:08.597Z,58.50
2019-03-30T23:27:38.215Z,58.60
2019-03-30T23:30:08.016Z,58.80
2019-03-30T23:32:37.637Z,58.90
2019-03-30T23:35:07.538Z,59.20
2019-03-30T23:37:37.179Z,59.00
2019-03-30T23:40:06.888Z,59.00
2019-03-30T23:42:36.523Z,58.90
2019-03-30T23:45:06.510Z,59.00
2019-03-30T23:47:36.225Z,59.10
2019-03-30T23:50:06.018Z,59.20
2019-03-30T23:52:35.677Z,59.40
2019-03-30T23:55:05.486Z,59.60
2019-03-30T23:57:35.110Z,59.70
